< < Back
Terminal Aerodrome Forecast


Current Version              Previous Versions:   1  2  3  4  5  6  7  8  9  

Terminal Aerodrome Forecast

106
FTUS42 KILM 290500
TAFILM
TAF
KILM 290539Z 2906/3006 34006KT P6SM SCT040 BKN250
     FM290800 36006KT P6SM SCT040
     FM291400 03012KT P6SM SCT050=

Latest METAR

477
SAUS70 KWBC 292200 RRQ
MTRILM
METAR KILM 292153Z AUTO VRB04KT 10SM SCT055 BKN100 27/20 A2991 RMK AO2
SLP127 T02720200


USA.gov is the U.S. government's official web portal to all federal, state and local government web resources and services.